Time;durP1;ratioP1;P1;durP2;ratioP2;P2;SDS_P1;SDS_P2;PMS_P1;PMS_P2;Temp;Humidity;BMP_temperature;BMP_pressure;BME280_temperature;BME280_humidity;BME280_pressure;Samples;Min_cycle;Max_cycle;Signal;HPM_P1;HPM_P2
2023/04/29 00:05:23;;;;;;;;;;;;;;;;;;;;;
2023/04/29 00:11:50;;;;;;;;;;;;;;;;;;;;;
2023/04/29 00:24:52;;;;;;;13.32;6.53;;;;;;;-147.53;100.00;57128.34;10558540;23;20420;-85
2023/04/29 05:44:24;;;;;;;11.23;4.60;;;;;;;-147.53;100.00;57128.34;12246570;23;20118;-85
2023/04/29 05:57:08;;;;;;;8.23;3.83;;;;;;;-147.53;100.00;57128.34;10076120;29;21127;-85
2023/04/29 06:03:02;;;;;;;;;;;;;;;;;;;;;
2023/04/29 07:02:45;;;;;;;7.15;3.20;;;;;;;-147.53;100.00;57128.34;10133036;29;20080;-89
2023/04/29 07:07:51;;;;;;;8.93;3.90;;;;;;;-147.53;100.00;57128.34;10074965;29;20136;-89
2023/04/29 07:14:21;;;;;;;5.30;3.13;;;;;;;-147.53;100.00;57128.34;10136672;23;20441;-85
2023/04/29 07:40:04;;;;;;;6.60;3.17;;;;;;;-147.53;100.00;57128.34;9888351;29;20095;-87
2023/04/29 07:46:23;;;;;;;6.93;3.08;;;;;;;-147.53;100.00;57128.34;9804482;29;20528;-85
2023/04/29 07:59:57;;;;;;;;;;;;;;;;;;;;;
2023/04/29 08:06:43;;;;;;;;;;;;;;;;;;;;;
2023/04/29 08:12:34;;;;;;;10.50;3.58;;;;;;;-147.53;100.00;57128.34;9946356;23;20043;-86
2023/04/29 09:16:48;;;;;;;8.27;3.20;;;;;;;-147.53;100.00;57128.34;9941636;29;20053;-87
2023/04/29 09:22:47;;;;;;;7.63;3.20;;;;;;;-147.53;100.00;57128.34;10020722;29;20054;-84
2023/04/29 09:27:48;;;;;;;7.05;2.65;;;;;;;-147.53;100.00;57128.34;10011638;29;20057;-83
2023/04/29 09:33:08;;;;;;;16.30;3.10;;;;;;;-147.53;100.00;57128.34;10046805;29;20081;-82
2023/04/29 09:38:13;;;;;;;6.38;2.97;;;;;;;-147.53;100.00;57128.34;10028537;29;20053;-84
2023/04/29 09:43:18;;;;;;;8.93;3.20;;;;;;;-147.53;100.00;57128.34;10029108;29;20109;-81
2023/04/29 09:48:19;;;;;;;7.78;3.03;;;;;;;-147.53;100.00;57128.34;10041680;29;20660;-84
2023/04/29 09:53:46;;;;;;;7.38;2.80;;;;;;;-147.53;100.00;57128.34;10081711;29;20061;-86
2023/04/29 09:58:48;;;;;;;6.57;3.10;;;;;;;-147.53;100.00;57128.34;10101479;29;20412;-86
2023/04/29 10:03:52;;;;;;;6.60;2.97;;;;;;;-147.53;100.00;57128.34;10099089;29;20057;-87
2023/04/29 10:08:54;;;;;;;8.57;3.40;;;;;;;-147.53;100.00;57128.34;10104339;29;20057;-81
2023/04/29 10:13:57;;;;;;;8.18;3.05;;;;;;;-147.53;100.00;57128.34;10130513;29;20058;-83
2023/04/29 10:19:03;;;;;;;5.78;2.80;;;;;;;-147.53;100.00;57128.34;10081662;29;20487;-82
2023/04/29 10:24:06;;;;;;;7.22;3.00;;;;;;;-147.53;100.00;57128.34;10073599;29;20112;-82
2023/04/29 10:29:10;;;;;;;8.07;3.25;;;;;;;-147.53;100.00;57128.34;10089069;29;20048;-81
2023/04/29 10:34:12;;;;;;;8.13;3.20;;;;;;;-147.53;100.00;57128.34;10115187;29;20060;-82
2023/04/29 10:39:42;;;;;;;7.38;2.80;;;;;;;-147.53;100.00;57128.34;10123016;29;20060;-83
2023/04/29 10:45:16;;;;;;;7.57;3.00;;;;;;;-147.53;100.00;57128.34;10088646;29;20127;-84
2023/04/29 10:50:17;;;;;;;9.70;3.53;;;;;;;-147.53;100.00;57128.34;10088159;29;20429;-83
2023/04/29 10:55:19;;;;;;;9.00;3.17;;;;;;;-147.53;100.00;57128.34;10080129;29;20063;-84
2023/04/29 11:00:32;;;;;;;6.70;2.92;;;;;;;-147.53;100.00;57128.34;10051009;29;20053;-84
2023/04/29 11:05:40;;;;;;;4.97;2.58;;;;;;;-147.53;100.00;57128.34;10082492;29;20582;-84
2023/04/29 11:10:42;;;;;;;5.72;2.55;;;;;;;-147.53;100.00;57128.34;10088956;29;20053;-83
2023/04/29 11:15:44;;;;;;;4.50;2.05;;;;;;;-147.53;100.00;57128.34;10070499;29;20060;-83
2023/04/29 11:21:04;;;;;;;6.47;2.70;;;;;;;-147.53;100.00;57128.34;10104576;29;20059;-83
2023/04/29 11:26:07;;;;;;;5.43;2.60;;;;;;;-147.53;100.00;57128.34;10121557;29;20060;-82
2023/04/29 11:31:08;;;;;;;6.28;1.95;;;;;;;-147.53;100.00;57128.34;10117521;29;20135;-83
2023/04/29 11:36:10;;;;;;;4.95;2.45;;;;;;;-147.53;100.00;57128.34;10120041;29;20132;-83
2023/04/29 11:41:13;;;;;;;5.10;2.40;;;;;;;-147.53;100.00;57128.34;10106284;29;20540;-82
2023/04/29 11:46:15;;;;;;;8.50;2.75;;;;;;;-147.53;100.00;57128.34;10081969;29;20164;-81
2023/04/29 11:51:18;;;;;;;7.82;2.13;;;;;;;-147.53;100.00;57128.34;10127619;29;20071;-82
2023/04/29 11:56:24;;;;;;;7.68;2.50;;;;;;;-147.53;100.00;57128.34;10113704;29;20136;-84
2023/04/29 12:01:26;;;;;;;7.20;2.00;;;;;;;-147.53;100.00;57128.34;10127468;29;20048;-80
2023/04/29 12:06:29;;;;;;;8.45;2.10;;;;;;;-147.53;100.00;57128.34;10131875;29;20068;-83
2023/04/29 12:11:30;;;;;;;6.47;3.13;;;;;;;-147.53;100.00;57128.34;10114337;29;20050;-84
2023/04/29 12:16:33;;;;;;;5.35;2.38;;;;;;;-147.53;100.00;57128.34;10133084;29;20547;-82
2023/04/29 12:21:35;;;;;;;4.97;1.92;;;;;;;-147.53;100.00;57128.34;10090650;29;20049;-84
2023/04/29 12:26:39;;;;;;;6.15;2.05;;;;;;;-147.53;100.00;57128.34;10120716;29;20053;-80
2023/04/29 12:31:40;;;;;;;8.48;2.25;;;;;;;-147.53;100.00;57128.34;10126302;29;20052;-87
2023/04/29 12:36:43;;;;;;;3.45;1.63;;;;;;;-147.53;100.00;57128.34;10125092;29;20056;-77
2023/04/29 12:41:45;;;;;;;5.68;1.98;;;;;;;-147.53;100.00;57128.34;10142147;29;20413;-81
2023/04/29 12:46:46;;;;;;;8.38;2.17;;;;;;;-147.53;100.00;57128.34;10126771;29;20577;-77
2023/04/29 12:51:48;;;;;;;8.45;2.03;;;;;;;-147.53;100.00;57128.34;10114198;29;20108;-81
2023/04/29 12:56:51;;;;;;;7.38;2.25;;;;;;;-147.53;100.00;57128.34;10101445;29;20064;-82
2023/04/29 13:01:52;;;;;;;5.40;2.10;;;;;;;-147.53;100.00;57128.34;10095717;29;20084;-84
2023/04/29 13:06:59;;;;;;;6.78;2.10;;;;;;;-147.53;100.00;57128.34;10097914;29;20088;-84
2023/04/29 13:12:01;;;;;;;5.60;1.90;;;;;;;-147.53;100.00;57128.34;10109075;29;20073;-84
2023/04/29 13:17:03;;;;;;;3.83;1.40;;;;;;;-147.53;100.00;57128.34;10090372;29;20057;-85
2023/04/29 13:22:06;;;;;;;2.88;1.35;;;;;;;-147.53;100.00;57128.34;10095117;29;20056;-86
2023/04/29 13:27:08;;;;;;;4.88;1.40;;;;;;;-147.53;100.00;57128.34;10121148;29;20459;-85
2023/04/29 13:32:13;;;;;;;2.63;1.08;;;;;;;-147.53;100.00;57128.34;10104529;29;20136;-85
2023/04/29 13:37:15;;;;;;;5.35;1.38;;;;;;;-147.53;100.00;57128.34;10121528;29;20808;-87
2023/04/29 13:42:20;;;;;;;2.72;1.20;;;;;;;-147.53;100.00;57128.34;10121300;29;20132;-87
2023/04/29 13:47:27;;;;;;;1.65;1.05;;;;;;;-147.53;100.00;57128.34;10121823;29;20311;-86
2023/04/29 13:52:37;;;;;;;3.08;1.10;;;;;;;-147.53;100.00;57128.34;10121466;29;20040;-87
2023/04/29 13:58:00;;;;;;;4.18;1.30;;;;;;;-147.53;100.00;57128.34;10122309;29;20060;-86
2023/04/29 14:03:22;;;;;;;1.40;0.85;;;;;;;-147.53;100.00;57128.34;10094913;29;20811;-86
2023/04/29 14:08:25;;;;;;;2.40;0.82;;;;;;;-147.53;100.00;57128.34;10121218;29;20101;-85
2023/04/29 14:13:26;;;;;;;4.75;1.00;;;;;;;-147.53;100.00;57128.34;10120581;29;20051;-85
2023/04/29 14:18:29;;;;;;;2.55;1.00;;;;;;;-147.53;100.00;57128.34;10104005;29;20061;-84
2023/04/29 14:23:31;;;;;;;3.70;1.10;;;;;;;-147.53;100.00;57128.34;10119310;29;20040;-85
2023/04/29 14:28:32;;;;;;;2.10;1.15;;;;;;;-147.53;100.00;57128.34;10120237;29;20055;-84
2023/04/29 14:33:34;;;;;;;2.80;1.05;;;;;;;-147.53;100.00;57128.34;10101721;29;20140;-84
2023/04/29 14:38:36;;;;;;;1.75;1.02;;;;;;;-147.53;100.00;57128.34;10119241;29;20044;-86
2023/04/29 14:43:38;;;;;;;2.15;0.90;;;;;;;-147.53;100.00;57128.34;10119474;29;20800;-85
2023/04/29 14:48:39;;;;;;;2.22;1.05;;;;;;;-147.53;100.00;57128.34;10120695;29;20514;-85
2023/04/29 14:53:41;;;;;;;1.75;0.82;;;;;;;-147.53;100.00;57128.34;10120097;29;20048;-85
2023/04/29 14:58:43;;;;;;;3.60;1.10;;;;;;;-147.53;100.00;57128.34;10103487;29;20557;-84
2023/04/29 15:03:45;;;;;;;2.42;1.00;;;;;;;-147.53;100.00;57128.34;10102130;29;20072;-87
2023/04/29 15:08:47;;;;;;;2.03;1.00;;;;;;;-147.53;100.00;57128.34;10121521;29;20429;-84
2023/04/29 15:13:48;;;;;;;1.95;0.90;;;;;;;-147.53;100.00;57128.34;10106923;29;20045;-83
2023/04/29 15:18:50;;;;;;;2.30;1.13;;;;;;;-147.53;100.00;57128.34;10120004;29;20097;-85
2023/04/29 15:23:54;;;;;;;1.63;0.90;;;;;;;-147.53;100.00;57128.34;10115089;29;20060;-85
2023/04/29 15:28:56;;;;;;;3.42;1.40;;;;;;;-147.53;100.00;57128.34;10129378;29;20473;-80
2023/04/29 15:33:58;;;;;;;3.05;1.25;;;;;;;-147.53;100.00;57128.34;10122271;29;20112;-82
2023/04/29 15:38:59;;;;;;;2.17;1.02;;;;;;;-147.53;100.00;57128.34;10123814;29;20416;-83
2023/04/29 15:44:01;;;;;;;3.03;1.13;;;;;;;-147.53;100.00;57128.34;10111828;29;20045;-86
2023/04/29 15:49:07;;;;;;;2.08;1.30;;;;;;;-147.53;100.00;57128.34;10110409;29;20056;-79
2023/04/29 15:54:09;;;;;;;2.53;1.00;;;;;;;-147.53;100.00;57128.34;10136627;29;20056;-82
2023/04/29 15:59:11;;;;;;;1.98;1.15;;;;;;;-147.53;100.00;57128.34;10138724;29;20095;-77
2023/04/29 16:04:12;;;;;;;1.20;0.70;;;;;;;-147.53;100.00;57128.34;10118806;29;20052;-78
2023/04/29 16:09:14;;;;;;;2.60;0.90;;;;;;;-147.53;100.00;57128.34;10118855;29;20059;-78
2023/04/29 16:14:16;;;;;;;1.73;1.00;;;;;;;-147.53;100.00;57128.34;10133343;29;20748;-77
2023/04/29 16:19:17;;;;;;;1.13;0.77;;;;;;;-147.53;100.00;57128.34;10116282;29;20079;-77
2023/04/29 16:24:19;;;;;;;1.25;0.75;;;;;;;-147.53;100.00;57128.34;10131906;29;20057;-77
2023/04/29 16:29:21;;;;;;;5.28;0.95;;;;;;;-147.53;100.00;57128.34;10132336;29;20068;-78
2023/04/29 16:34:27;;;;;;;1.95;0.82;;;;;;;-147.53;100.00;57128.34;10128953;29;20116;-81
2023/04/29 16:39:28;;;;;;;2.53;1.33;;;;;;;-147.53;100.00;57128.34;10166944;29;20603;-80
2023/04/29 16:44:30;;;;;;;3.80;1.23;;;;;;;-147.53;100.00;57128.34;10165813;29;20055;-81
2023/04/29 16:49:31;;;;;;;2.80;1.05;;;;;;;-147.53;100.00;57128.34;10143133;29;20533;-78
2023/04/29 16:54:33;;;;;;;3.33;0.90;;;;;;;-147.53;100.00;57128.34;10113181;29;20598;-82
2023/04/29 16:59:37;;;;;;;3.45;1.02;;;;;;;-147.53;100.00;57128.34;10106381;29;20471;-81
2023/04/29 17:04:39;;;;;;;1.88;0.77;;;;;;;-147.53;100.00;57128.34;10119583;29;20052;-82
2023/04/29 17:09:41;;;;;;;1.40;0.85;;;;;;;-147.53;100.00;57128.34;10119321;29;20564;-82
2023/04/29 17:14:43;;;;;;;2.25;1.10;;;;;;;-147.53;100.00;57128.34;10137897;29;20051;-81
2023/04/29 17:19:48;;;;;;;1.85;0.98;;;;;;;-147.53;100.00;57128.34;10137629;29;20084;-82
2023/04/29 17:24:50;;;;;;;1.88;1.00;;;;;;;-147.53;100.00;57128.34;10131499;29;20052;-81
2023/04/29 17:29:52;;;;;;;2.17;1.05;;;;;;;-147.53;100.00;57128.34;10117860;29;20057;-80
2023/04/29 17:34:55;;;;;;;3.40;1.20;;;;;;;-147.53;100.00;57128.34;10137573;29;20055;-81
2023/04/29 17:39:57;;;;;;;4.60;1.15;;;;;;;-147.53;100.00;57128.34;10131262;29;20530;-81
2023/04/29 17:44:59;;;;;;;2.20;1.15;;;;;;;-147.53;100.00;57128.34;10137940;29;20132;-80
2023/04/29 17:50:00;;;;;;;2.05;1.05;;;;;;;-147.53;100.00;57128.34;10142591;29;20067;-80
2023/04/29 17:55:03;;;;;;;4.07;1.13;;;;;;;-147.53;100.00;57128.34;10109659;29;20136;-80
2023/04/29 18:00:06;;;;;;;5.03;1.00;;;;;;;-147.53;100.00;57128.34;10122271;29;20052;-80
2023/04/29 18:05:08;;;;;;;4.65;1.13;;;;;;;-147.53;100.00;57128.34;10121699;29;20424;-81
2023/04/29 18:10:10;;;;;;;4.05;0.98;;;;;;;-147.53;100.00;57128.34;10102911;29;20440;-81
2023/04/29 18:15:15;;;;;;;2.50;0.95;;;;;;;-147.53;100.00;57128.34;10119014;29;20064;-81
2023/04/29 18:20:17;;;;;;;2.40;1.20;;;;;;;-147.53;100.00;57128.34;10100263;29;20060;-81
2023/04/29 18:25:19;;;;;;;2.83;1.30;;;;;;;-147.53;100.00;57128.34;10113489;29;20323;-81
2023/04/29 18:30:21;;;;;;;2.58;1.27;;;;;;;-147.53;100.00;57128.34;10094234;29;20048;-81
2023/04/29 18:35:22;;;;;;;4.85;0.95;;;;;;;-147.53;100.00;57128.34;10085231;29;20553;-81
2023/04/29 18:40:24;;;;;;;5.07;1.02;;;;;;;-147.53;100.00;57128.34;10106145;29;20514;-81
2023/04/29 18:45:26;;;;;;;2.72;1.25;;;;;;;-147.53;100.00;57128.34;10098753;29;20131;-81
2023/04/29 18:50:27;;;;;;;2.10;1.13;;;;;;;-147.53;100.00;57128.34;10115882;29;20060;-81
2023/04/29 18:55:29;;;;;;;1.70;0.75;;;;;;;-147.53;100.00;57128.34;10112584;29;20049;-82
2023/04/29 19:00:31;;;;;;;2.05;0.95;;;;;;;-147.53;100.00;57128.34;10099483;29;20059;-80
2023/04/29 19:05:33;;;;;;;0.88;0.55;;;;;;;-147.53;100.00;57128.34;10081234;29;20507;-80
2023/04/29 19:10:35;;;;;;;4.45;1.08;;;;;;;-147.53;100.00;57128.34;10116274;29;20123;-80
2023/04/29 19:15:37;;;;;;;1.63;0.85;;;;;;;-147.53;100.00;57128.34;10096438;29;20107;-81
2023/04/29 19:20:39;;;;;;;1.48;0.98;;;;;;;-147.53;100.00;57128.34;10112703;29;20079;-81
2023/04/29 19:25:41;;;;;;;1.02;0.68;;;;;;;-147.53;100.00;57128.34;10109416;29;20521;-80
2023/04/29 19:30:43;;;;;;;7.88;0.90;;;;;;;-147.53;100.00;57128.34;10093202;29;20833;-81
2023/04/29 19:35:44;;;;;;;0.50;0.30;;;;;;;-147.53;100.00;57128.34;10070735;29;20065;-80
2023/04/29 19:40:46;;;;;;;0.60;0.57;;;;;;;-147.53;100.00;57128.34;10105160;29;20084;-81
2023/04/29 19:45:48;;;;;;;1.35;0.70;;;;;;;-147.53;100.00;57128.34;10113038;29;20052;-81
2023/04/29 19:50:50;;;;;;;3.33;0.75;;;;;;;-147.53;100.00;57128.34;10094128;29;20061;-82
2023/04/29 19:55:52;;;;;;;4.60;0.70;;;;;;;-147.53;100.00;57128.34;10095377;29;20145;-83
2023/04/29 20:00:54;;;;;;;4.68;0.57;;;;;;;-147.53;100.00;57128.34;10108644;29;20121;-81
2023/04/29 20:05:58;;;;;;;7.68;1.40;;;;;;;-147.53;100.00;57128.34;10115398;29;20482;-80
2023/04/29 20:10:59;;;;;;;4.50;0.80;;;;;;;-147.53;100.00;57128.34;10140331;29;20064;-81
2023/04/29 20:16:01;;;;;;;4.43;0.68;;;;;;;-147.53;100.00;57128.34;10139424;29;20048;-82
2023/04/29 20:21:03;;;;;;;0.77;0.40;;;;;;;-147.53;100.00;57128.34;10115001;29;20210;-81
2023/04/29 20:26:05;;;;;;;2.50;1.02;;;;;;;-147.53;100.00;57128.34;10122569;29;20081;-81
2023/04/29 20:31:07;;;;;;;1.13;0.50;;;;;;;-147.53;100.00;57128.34;10125244;29;20096;-81
2023/04/29 20:36:09;;;;;;;1.60;1.33;;;;;;;-147.53;100.00;57128.34;10113685;29;20063;-82
2023/04/29 20:41:10;;;;;;;1.00;0.70;;;;;;;-147.53;100.00;57128.34;10132730;29;20426;-83
2023/04/29 20:46:12;;;;;;;2.35;1.13;;;;;;;-147.53;100.00;57128.34;10115309;29;20056;-81
2023/04/29 20:51:14;;;;;;;3.38;0.52;;;;;;;-147.53;100.00;57128.34;10132019;29;20067;-81
2023/04/29 20:56:16;;;;;;;3.05;0.85;;;;;;;-147.53;100.00;57128.34;10113418;29;20120;-81
2023/04/29 21:01:20;;;;;;;1.45;0.65;;;;;;;-147.53;100.00;57128.34;10130094;29;20080;-82
2023/04/29 21:06:24;;;;;;;0.40;0.40;;;;;;;-147.53;100.00;57128.34;10113579;29;20071;-80
2023/04/29 21:11:26;;;;;;;6.15;0.75;;;;;;;-147.53;100.00;57128.34;10130379;29;20060;-81
2023/04/29 21:16:27;;;;;;;0.60;0.32;;;;;;;-147.53;100.00;57128.34;10128886;29;20061;-82
2023/04/29 21:21:30;;;;;;;1.23;0.40;;;;;;;-147.53;100.00;57128.34;10113269;29;20069;-81
2023/04/29 21:26:32;;;;;;;0.65;0.40;;;;;;;-147.53;100.00;57128.34;10129684;29;20128;-80
2023/04/29 21:31:33;;;;;;;0.63;0.50;;;;;;;-147.53;100.00;57128.34;10129548;29;20174;-81
2023/04/29 21:36:35;;;;;;;4.53;0.47;;;;;;;-147.53;100.00;57128.34;10111416;29;20104;-82
2023/04/29 21:41:38;;;;;;;0.55;0.43;;;;;;;-147.53;100.00;57128.34;10128745;29;20044;-80
2023/04/29 21:46:40;;;;;;;0.32;0.32;;;;;;;-147.53;100.00;57128.34;10112020;29;20131;-82
2023/04/29 21:51:42;;;;;;;0.50;0.50;;;;;;;-147.53;100.00;57128.34;10111453;29;20072;-81
2023/04/29 21:56:43;;;;;;;2.17;0.93;;;;;;;-147.53;100.00;57128.34;10128069;29;20414;-80
2023/04/29 22:06:46;;;;;;;0.70;0.65;;;;;;;-147.53;100.00;57128.34;10111221;29;20144;-81
2023/04/29 22:11:51;;;;;;;0.65;0.52;;;;;;;-147.53;100.00;57128.34;10128137;29;20064;-80
2023/04/29 22:16:53;;;;;;;0.82;0.55;;;;;;;-147.53;100.00;57128.34;10125127;29;20056;-78
2023/04/29 22:21:55;;;;;;;2.13;0.55;;;;;;;-147.53;100.00;57128.34;10125424;29;20732;-80
2023/04/29 22:26:57;;;;;;;4.82;0.93;;;;;;;-147.53;100.00;57128.34;10107076;29;20063;-80
2023/04/29 22:31:59;;;;;;;0.77;0.63;;;;;;;-147.53;100.00;57128.34;10106942;29;20535;-79
2023/04/29 22:37:01;;;;;;;0.38;0.38;;;;;;;-147.53;100.00;57128.34;10125965;29;20053;-80
2023/04/29 22:42:03;;;;;;;1.92;0.50;;;;;;;-147.53;100.00;57128.34;10131341;29;20168;-80
2023/04/29 22:47:05;;;;;;;1.85;0.70;;;;;;;-147.53;100.00;57128.34;10130006;29;20139;-80
2023/04/29 22:52:07;;;;;;;1.08;0.52;;;;;;;-147.53;100.00;57128.34;10124466;29;20649;-80
2023/04/29 22:57:08;;;;;;;1.02;0.60;;;;;;;-147.53;100.00;57128.34;10121530;29;20852;-80
2023/04/29 23:02:10;;;;;;;1.23;0.77;;;;;;;-147.53;100.00;57128.34;10088973;29;20116;-81
2023/04/29 23:07:12;;;;;;;3.85;1.98;;;;;;;-147.53;100.00;57128.34;10121698;29;20437;-80
2023/04/29 23:12:14;;;;;;;3.80;0.80;;;;;;;-147.53;100.00;57128.34;10088569;29;20063;-80
2023/04/29 23:17:16;;;;;;;2.20;1.48;;;;;;;-147.53;100.00;57128.34;10103524;29;20056;-79
2023/04/29 23:22:18;;;;;;;1.05;0.75;;;;;;;-147.53;100.00;57128.34;10112479;29;20048;-80
2023/04/29 23:27:20;;;;;;;0.70;0.68;;;;;;;-147.53;100.00;57128.34;10118736;29;20086;-80
2023/04/29 23:32:23;;;;;;;0.73;0.63;;;;;;;-147.53;100.00;57128.34;10103095;29;20767;-80
2023/04/29 23:37:25;;;;;;;5.05;0.73;;;;;;;-147.53;100.00;57128.34;10120500;29;20505;-80
2023/04/29 23:42:26;;;;;;;2.08;1.13;;;;;;;-147.53;100.00;57128.34;10120283;29;20049;-79
2023/04/29 23:47:28;;;;;;;1.90;1.02;;;;;;;-147.53;100.00;57128.34;10118991;29;20054;-79
2023/04/29 23:52:30;;;;;;;2.83;1.20;;;;;;;-147.53;100.00;57128.34;10118490;29;20525;-79
2023/04/29 23:57:32;;;;;;;1.60;0.90;;;;;;;-147.53;100.00;57128.34;10101411;29;20064;-79
